Callao, VA

1:27 AM EDT on September 02, 2014 (GMT -0400)
Lodge Creek | Change Station
CLOSE
Current Station
Personal Weather Station
Location: Callao, VA
Elevation: 21 ft
Nearby Weather Stations

Elev 21 ft 38.00 °N, 76.55 °W | Updated 16 seconds ago

Clear
Clear
77.2 °F
Feels Like 79 °F
N
0.7
Wind Variable Wind from West
Gusts 1.6 mph

Today
High -- | Low -- °F
--% Chance of Precip.
Yesterday
High -- | Low -- °F
Precip. -- in
6:36 AM 7:34 PM
Waxing Crescent, 48% visible
Pressure 29.97 in
Visibility 10.0 miles
Clouds Clear
Heat Index 79 °F
Dew Point 57 °F
Humidity 49%
Rainfall 0.00 in
Snow Depth Not available.
UV 0 out of 12
Pollen 9.90 out of 12
Air Quality Not available.
Flu Activity Not available.
METAR KNUI 020453Z AUTO 00000KT 10SM CLR 23/21 A2997 RMK AO2 SLP149 T02330211 403280233

More Conditions Fewer Conditions

Pressure 29.97 in
Visibility 10.0 miles
Clouds Clear
Heat Index 79 °F
Dew Point 57 °F
Humidity 49%
Rainfall 0.00 in
Snow Depth Not available.
UV 0 out of 12
Pollen 9.90 out of 12
Air Quality Not available.
Flu Activity Not available.
METAR KNUI 020453Z AUTO 00000KT 10SM CLR 23/21 A2997 RMK AO2 SLP149 T02330211 403280233

More Conditions Fewer Conditions

10-Day Weather Forecast

Almanac

Astronomy

Sep. 02, 2014 Rise Set
Actual Time 6:36 AM EDT 7:34 PM EDT
Civil Twilight 6:10 AM EDT 8:01 PM EDT
Nautical Twilight 5:38 AM EDT 8:32 PM EDT
Astronomical Twilight 5:04 AM EDT 9:05 PM EDT
Moon 2:12 PM EDT No Moon Set
Length of Visible Light 13h 50m
Length of Day
12h 57m
Tomorrow will be 2m 21s shorter.
Waxing Crescent, 48% of the Moon is Illuminated
Today
Waxing Crescent
Sep 2
First Quarter
Sep 8
Full
Sep 15
Last Quarter
Sep 24
New

Today's Extremes

State Highs State Lows

Community

WunderPhotos

Upload Photos

1,749,575 photos uploaded!

WunderBlogs® & News

Nearby

Snow Depth

Station Depth Elevation
No new snow has been reported.

Earthquake Activity

City Distance Mag. Time & Date
No recent earthquake activity has been reported nearby.
Minimum magnitude displayed is 2.5.

Coastal Water Temperatures

Place Temperature
Lewisetta, VA 82.0 °F
Solomons Island, MD 80.1 °F
Bishops Head, MD 82.9 °F

Nearby Weather Stations